sensor_id;sensor_type;location;lat;lon;timestamp;P1;durP1;ratioP1;P2;durP2;ratioP2
71462;SDS011;59266;52.608;13.260;2024-01-11T00:00:02;29.92;;;8.07;;
71462;SDS011;59266;52.608;13.260;2024-01-11T00:02:29;21.08;;;8.18;;
71462;SDS011;59266;52.608;13.260;2024-01-11T00:04:56;29.10;;;8.65;;
71462;SDS011;59266;52.608;13.260;2024-01-11T00:07:23;26.20;;;8.65;;
71462;SDS011;59266;52.608;13.260;2024-01-11T00:09:49;30.48;;;8.13;;
71462;SDS011;59266;52.608;13.260;2024-01-11T00:12:16;32.20;;;9.88;;
71462;SDS011;59266;52.608;13.260;2024-01-11T00:14:42;28.30;;;11.10;;
71462;SDS011;59266;52.608;13.260;2024-01-11T00:17:09;34.47;;;11.95;;
71462;SDS011;59266;52.608;13.260;2024-01-11T00:19:35;31.83;;;9.82;;
71462;SDS011;59266;52.608;13.260;2024-01-11T00:22:02;33.28;;;9.65;;
71462;SDS011;59266;52.608;13.260;2024-01-11T00:24:28;25.77;;;8.82;;
71462;SDS011;59266;52.608;13.260;2024-01-11T00:26:55;59.08;;;12.32;;
71462;SDS011;59266;52.608;13.260;2024-01-11T00:29:21;37.10;;;11.02;;
71462;SDS011;59266;52.608;13.260;2024-01-11T00:31:48;55.35;;;13.90;;
71462;SDS011;59266;52.608;13.260;2024-01-11T00:34:15;39.30;;;11.20;;
71462;SDS011;59266;52.608;13.260;2024-01-11T00:36:41;24.70;;;8.57;;
71462;SDS011;59266;52.608;13.260;2024-01-11T00:39:08;35.53;;;9.85;;
71462;SDS011;59266;52.608;13.260;2024-01-11T00:41:35;37.63;;;9.63;;
71462;SDS011;59266;52.608;13.260;2024-01-11T00:44:01;95.65;;;11.63;;
71462;SDS011;59266;52.608;13.260;2024-01-11T00:46:28;36.22;;;9.73;;
71462;SDS011;59266;52.608;13.260;2024-01-11T00:48:55;27.65;;;7.95;;
71462;SDS011;59266;52.608;13.260;2024-01-11T00:51:22;46.65;;;9.10;;
71462;SDS011;59266;52.608;13.260;2024-01-11T00:53:48;40.53;;;10.07;;
71462;SDS011;59266;52.608;13.260;2024-01-11T00:56:18;110.50;;;10.65;;
71462;SDS011;59266;52.608;13.260;2024-01-11T00:58:45;52.47;;;8.48;;
71462;SDS011;59266;52.608;13.260;2024-01-11T01:01:12;33.30;;;7.95;;
71462;SDS011;59266;52.608;13.260;2024-01-11T01:03:39;35.25;;;10.40;;
71462;SDS011;59266;52.608;13.260;2024-01-11T01:06:06;53.47;;;10.00;;
71462;SDS011;59266;52.608;13.260;2024-01-11T01:08:33;44.65;;;9.55;;
71462;SDS011;59266;52.608;13.260;2024-01-11T01:10:59;26.55;;;8.45;;
71462;SDS011;59266;52.608;13.260;2024-01-11T01:13:26;35.20;;;8.63;;
71462;SDS011;59266;52.608;13.260;2024-01-11T01:15:53;57.72;;;8.93;;
71462;SDS011;59266;52.608;13.260;2024-01-11T01:18:19;70.28;;;9.55;;
71462;SDS011;59266;52.608;13.260;2024-01-11T01:20:46;60.58;;;8.45;;
71462;SDS011;59266;52.608;13.260;2024-01-11T01:23:12;51.53;;;7.82;;
71462;SDS011;59266;52.608;13.260;2024-01-11T01:25:39;64.25;;;8.25;;
71462;SDS011;59266;52.608;13.260;2024-01-11T01:28:06;33.13;;;7.57;;
71462;SDS011;59266;52.608;13.260;2024-01-11T01:30:32;27.48;;;7.78;;
71462;SDS011;59266;52.608;13.260;2024-01-11T01:32:59;20.90;;;7.25;;
71462;SDS011;59266;52.608;13.260;2024-01-11T01:35:26;48.55;;;7.75;;
71462;SDS011;59266;52.608;13.260;2024-01-11T01:37:53;74.50;;;6.13;;
71462;SDS011;59266;52.608;13.260;2024-01-11T01:40:19;25.65;;;6.95;;
71462;SDS011;59266;52.608;13.260;2024-01-11T01:42:46;26.70;;;7.60;;
71462;SDS011;59266;52.608;13.260;2024-01-11T01:45:15;54.88;;;6.38;;
71462;SDS011;59266;52.608;13.260;2024-01-11T01:47:43;23.20;;;7.10;;
71462;SDS011;59266;52.608;13.260;2024-01-11T01:50:11;21.38;;;6.72;;
71462;SDS011;59266;52.608;13.260;2024-01-11T01:52:38;63.75;;;7.15;;
71462;SDS011;59266;52.608;13.260;2024-01-11T01:55:07;27.30;;;7.57;;
71462;SDS011;59266;52.608;13.260;2024-01-11T01:57:36;63.17;;;7.63;;
71462;SDS011;59266;52.608;13.260;2024-01-11T02:00:04;22.65;;;6.40;;
71462;SDS011;59266;52.608;13.260;2024-01-11T02:02:31;21.52;;;6.57;;
71462;SDS011;59266;52.608;13.260;2024-01-11T02:05:00;24.40;;;7.68;;
71462;SDS011;59266;52.608;13.260;2024-01-11T02:07:28;28.55;;;7.78;;
71462;SDS011;59266;52.608;13.260;2024-01-11T02:09:54;24.20;;;6.55;;
71462;SDS011;59266;52.608;13.260;2024-01-11T02:12:22;21.60;;;6.53;;
71462;SDS011;59266;52.608;13.260;2024-01-11T02:14:50;30.75;;;7.35;;
71462;SDS011;59266;52.608;13.260;2024-01-11T02:17:16;24.52;;;6.65;;
71462;SDS011;59266;52.608;13.260;2024-01-11T02:19:43;47.67;;;7.80;;
71462;SDS011;59266;52.608;13.260;2024-01-11T02:22:12;24.70;;;6.68;;
71462;SDS011;59266;52.608;13.260;2024-01-11T02:24:46;22.40;;;6.47;;
71462;SDS011;59266;52.608;13.260;2024-01-11T02:27:13;22.38;;;6.53;;
71462;SDS011;59266;52.608;13.260;2024-01-11T02:29:40;20.13;;;7.18;;
71462;SDS011;59266;52.608;13.260;2024-01-11T02:32:06;22.15;;;6.20;;
71462;SDS011;59266;52.608;13.260;2024-01-11T02:34:34;31.73;;;6.50;;
71462;SDS011;59266;52.608;13.260;2024-01-11T02:37:01;29.10;;;6.55;;
71462;SDS011;59266;52.608;13.260;2024-01-11T02:39:28;21.70;;;5.20;;
71462;SDS011;59266;52.608;13.260;2024-01-11T02:41:55;30.77;;;6.78;;
71462;SDS011;59266;52.608;13.260;2024-01-11T02:44:22;21.02;;;6.05;;
71462;SDS011;59266;52.608;13.260;2024-01-11T02:46:49;24.75;;;6.32;;
71462;SDS011;59266;52.608;13.260;2024-01-11T02:49:15;18.45;;;4.72;;
71462;SDS011;59266;52.608;13.260;2024-01-11T02:51:42;20.70;;;5.65;;
71462;SDS011;59266;52.608;13.260;2024-01-11T02:54:08;41.58;;;7.30;;
71462;SDS011;59266;52.608;13.260;2024-01-11T02:56:35;20.08;;;5.57;;
71462;SDS011;59266;52.608;13.260;2024-01-11T02:59:02;18.52;;;5.50;;
71462;SDS011;59266;52.608;13.260;2024-01-11T03:01:28;22.40;;;5.75;;
71462;SDS011;59266;52.608;13.260;2024-01-11T03:03:55;16.58;;;5.00;;
71462;SDS011;59266;52.608;13.260;2024-01-11T03:06:22;17.70;;;5.40;;
71462;SDS011;59266;52.608;13.260;2024-01-11T03:08:49;22.75;;;5.32;;
71462;SDS011;59266;52.608;13.260;2024-01-11T03:11:16;18.10;;;5.28;;
71462;SDS011;59266;52.608;13.260;2024-01-11T03:13:42;18.15;;;4.18;;
71462;SDS011;59266;52.608;13.260;2024-01-11T03:16:09;21.30;;;5.95;;
71462;SDS011;59266;52.608;13.260;2024-01-11T03:18:36;18.90;;;5.55;;
71462;SDS011;59266;52.608;13.260;2024-01-11T03:21:02;17.92;;;4.53;;
71462;SDS011;59266;52.608;13.260;2024-01-11T03:23:29;17.00;;;3.97;;
71462;SDS011;59266;52.608;13.260;2024-01-11T03:25:55;14.88;;;3.53;;
71462;SDS011;59266;52.608;13.260;2024-01-11T03:28:22;19.73;;;4.50;;
71462;SDS011;59266;52.608;13.260;2024-01-11T03:30:48;16.17;;;3.28;;
71462;SDS011;59266;52.608;13.260;2024-01-11T03:33:15;20.45;;;4.53;;
71462;SDS011;59266;52.608;13.260;2024-01-11T03:35:42;24.92;;;4.90;;
71462;SDS011;59266;52.608;13.260;2024-01-11T03:38:10;26.73;;;4.70;;
71462;SDS011;59266;52.608;13.260;2024-01-11T03:40:37;15.13;;;3.60;;
71462;SDS011;59266;52.608;13.260;2024-01-11T03:43:03;23.55;;;4.95;;
71462;SDS011;59266;52.608;13.260;2024-01-11T03:45:30;32.47;;;4.88;;
71462;SDS011;59266;52.608;13.260;2024-01-11T03:47:56;21.02;;;4.57;;
71462;SDS011;59266;52.608;13.260;2024-01-11T03:50:23;20.45;;;4.93;;
71462;SDS011;59266;52.608;13.260;2024-01-11T03:52:49;39.13;;;4.80;;
71462;SDS011;59266;52.608;13.260;2024-01-11T03:55:16;23.83;;;5.45;;
71462;SDS011;59266;52.608;13.260;2024-01-11T03:57:42;21.58;;;5.55;;
71462;SDS011;59266;52.608;13.260;2024-01-11T04:00:10;34.40;;;6.35;;
71462;SDS011;59266;52.608;13.260;2024-01-11T04:02:37;23.13;;;5.93;;
71462;SDS011;59266;52.608;13.260;2024-01-11T04:05:04;30.88;;;6.75;;
71462;SDS011;59266;52.608;13.260;2024-01-11T04:07:31;23.70;;;5.60;;
71462;SDS011;59266;52.608;13.260;2024-01-11T04:09:57;32.75;;;5.80;;
71462;SDS011;59266;52.608;13.260;2024-01-11T04:12:25;39.90;;;6.13;;
71462;SDS011;59266;52.608;13.260;2024-01-11T04:14:51;29.30;;;6.07;;
71462;SDS011;59266;52.608;13.260;2024-01-11T04:17:18;21.52;;;4.82;;
71462;SDS011;59266;52.608;13.260;2024-01-11T04:19:44;36.35;;;5.18;;
71462;SDS011;59266;52.608;13.260;2024-01-11T04:22:11;26.17;;;6.78;;
71462;SDS011;59266;52.608;13.260;2024-01-11T04:24:37;35.08;;;5.55;;
71462;SDS011;59266;52.608;13.260;2024-01-11T04:27:05;19.88;;;5.43;;
71462;SDS011;59266;52.608;13.260;2024-01-11T04:29:31;29.88;;;5.10;;
71462;SDS011;59266;52.608;13.260;2024-01-11T04:31:58;30.58;;;5.72;;
71462;SDS011;59266;52.608;13.260;2024-01-11T04:34:25;20.33;;;4.82;;
71462;SDS011;59266;52.608;13.260;2024-01-11T04:36:51;36.33;;;5.93;;
71462;SDS011;59266;52.608;13.260;2024-01-11T04:39:18;36.22;;;6.10;;
71462;SDS011;59266;52.608;13.260;2024-01-11T04:41:45;22.75;;;5.18;;
71462;SDS011;59266;52.608;13.260;2024-01-11T04:44:11;18.58;;;5.07;;
71462;SDS011;59266;52.608;13.260;2024-01-11T04:46:38;58.47;;;7.40;;
71462;SDS011;59266;52.608;13.260;2024-01-11T04:49:04;29.23;;;6.55;;
71462;SDS011;59266;52.608;13.260;2024-01-11T04:51:31;20.90;;;5.43;;
71462;SDS011;59266;52.608;13.260;2024-01-11T04:53:57;39.92;;;7.10;;
71462;SDS011;59266;52.608;13.260;2024-01-11T04:56:24;28.38;;;5.85;;
71462;SDS011;59266;52.608;13.260;2024-01-11T04:58:50;22.92;;;5.47;;
71462;SDS011;59266;52.608;13.260;2024-01-11T05:01:17;35.15;;;6.75;;
71462;SDS011;59266;52.608;13.260;2024-01-11T05:03:45;30.98;;;6.57;;
71462;SDS011;59266;52.608;13.260;2024-01-11T05:06:16;36.88;;;6.97;;
71462;SDS011;59266;52.608;13.260;2024-01-11T05:08:44;26.70;;;6.15;;
71462;SDS011;59266;52.608;13.260;2024-01-11T05:11:17;29.92;;;6.55;;
71462;SDS011;59266;52.608;13.260;2024-01-11T05:13:45;56.22;;;6.43;;
71462;SDS011;59266;52.608;13.260;2024-01-11T05:16:18;31.90;;;7.20;;
71462;SDS011;59266;52.608;13.260;2024-01-11T05:18:49;27.33;;;7.47;;
71462;SDS011;59266;52.608;13.260;2024-01-11T05:21:19;25.55;;;5.65;;
71462;SDS011;59266;52.608;13.260;2024-01-11T05:23:46;29.13;;;7.25;;
71462;SDS011;59266;52.608;13.260;2024-01-11T05:26:14;31.45;;;7.50;;
71462;SDS011;59266;52.608;13.260;2024-01-11T05:28:42;27.75;;;6.43;;
71462;SDS011;59266;52.608;13.260;2024-01-11T05:31:09;26.27;;;6.47;;
71462;SDS011;59266;52.608;13.260;2024-01-11T05:33:37;27.25;;;5.95;;
71462;SDS011;59266;52.608;13.260;2024-01-11T05:36:05;24.10;;;6.53;;
71462;SDS011;59266;52.608;13.260;2024-01-11T05:38:32;36.40;;;6.35;;
71462;SDS011;59266;52.608;13.260;2024-01-11T05:40:59;28.15;;;6.15;;
71462;SDS011;59266;52.608;13.260;2024-01-11T05:43:25;28.92;;;7.30;;
71462;SDS011;59266;52.608;13.260;2024-01-11T05:45:52;28.40;;;6.40;;
71462;SDS011;59266;52.608;13.260;2024-01-11T05:48:19;28.75;;;6.10;;
71462;SDS011;59266;52.608;13.260;2024-01-11T05:50:45;39.08;;;7.75;;
71462;SDS011;59266;52.608;13.260;2024-01-11T05:53:12;31.30;;;6.57;;
71462;SDS011;59266;52.608;13.260;2024-01-11T05:55:39;31.50;;;7.25;;
71462;SDS011;59266;52.608;13.260;2024-01-11T05:58:06;31.75;;;6.63;;
71462;SDS011;59266;52.608;13.260;2024-01-11T06:00:32;34.30;;;7.30;;
71462;SDS011;59266;52.608;13.260;2024-01-11T06:02:59;30.95;;;7.13;;
71462;SDS011;59266;52.608;13.260;2024-01-11T06:05:26;32.25;;;7.70;;
71462;SDS011;59266;52.608;13.260;2024-01-11T06:07:53;35.60;;;6.78;;
71462;SDS011;59266;52.608;13.260;2024-01-11T06:10:19;40.83;;;8.32;;
71462;SDS011;59266;52.608;13.260;2024-01-11T06:12:46;43.42;;;8.70;;
71462;SDS011;59266;52.608;13.260;2024-01-11T06:15:13;36.15;;;7.78;;
71462;SDS011;59266;52.608;13.260;2024-01-11T06:17:39;39.38;;;7.88;;
71462;SDS011;59266;52.608;13.260;2024-01-11T06:20:06;27.40;;;7.63;;
71462;SDS011;59266;52.608;13.260;2024-01-11T06:22:33;31.50;;;8.52;;
71462;SDS011;59266;52.608;13.260;2024-01-11T06:25:00;29.10;;;7.47;;
71462;SDS011;59266;52.608;13.260;2024-01-11T06:27:26;42.42;;;9.57;;
71462;SDS011;59266;52.608;13.260;2024-01-11T06:29:53;41.78;;;9.13;;
71462;SDS011;59266;52.608;13.260;2024-01-11T06:32:21;37.70;;;8.75;;
71462;SDS011;59266;52.608;13.260;2024-01-11T06:34:48;52.63;;;14.13;;
71462;SDS011;59266;52.608;13.260;2024-01-11T06:37:14;33.80;;;8.05;;
71462;SDS011;59266;52.608;13.260;2024-01-11T06:39:41;41.78;;;10.43;;
71462;SDS011;59266;52.608;13.260;2024-01-11T06:42:08;37.92;;;8.85;;
71462;SDS011;59266;52.608;13.260;2024-01-11T06:44:35;37.25;;;8.70;;
71462;SDS011;59266;52.608;13.260;2024-01-11T06:47:01;48.13;;;11.27;;
71462;SDS011;59266;52.608;13.260;2024-01-11T06:49:30;51.65;;;9.63;;
71462;SDS011;59266;52.608;13.260;2024-01-11T06:51:57;40.25;;;9.00;;
71462;SDS011;59266;52.608;13.260;2024-01-11T06:54:23;41.20;;;9.27;;
71462;SDS011;59266;52.608;13.260;2024-01-11T06:56:50;39.03;;;8.77;;
71462;SDS011;59266;52.608;13.260;2024-01-11T06:59:16;42.33;;;10.25;;
71462;SDS011;59266;52.608;13.260;2024-01-11T07:01:45;42.50;;;10.85;;
71462;SDS011;59266;52.608;13.260;2024-01-11T07:04:11;46.13;;;10.20;;
71462;SDS011;59266;52.608;13.260;2024-01-11T07:06:38;50.80;;;10.80;;
71462;SDS011;59266;52.608;13.260;2024-01-11T07:09:05;43.20;;;10.38;;
71462;SDS011;59266;52.608;13.260;2024-01-11T07:11:32;52.08;;;11.48;;
71462;SDS011;59266;52.608;13.260;2024-01-11T07:13:58;54.72;;;13.05;;
71462;SDS011;59266;52.608;13.260;2024-01-11T07:16:25;60.53;;;14.48;;
71462;SDS011;59266;52.608;13.260;2024-01-11T07:18:52;51.38;;;12.45;;
71462;SDS011;59266;52.608;13.260;2024-01-11T07:21:22;47.53;;;9.50;;
71462;SDS011;59266;52.608;13.260;2024-01-11T07:23:58;40.42;;;9.93;;
71462;SDS011;59266;52.608;13.260;2024-01-11T07:26:25;39.08;;;9.45;;
71462;SDS011;59266;52.608;13.260;2024-01-11T07:28:53;44.25;;;7.95;;
71462;SDS011;59266;52.608;13.260;2024-01-11T07:31:22;49.95;;;11.15;;
71462;SDS011;59266;52.608;13.260;2024-01-11T07:33:49;53.47;;;10.00;;
71462;SDS011;59266;52.608;13.260;2024-01-11T07:36:16;43.20;;;10.38;;
71462;SDS011;59266;52.608;13.260;2024-01-11T07:38:43;40.03;;;11.65;;
71462;SDS011;59266;52.608;13.260;2024-01-11T07:41:10;46.97;;;10.95;;
71462;SDS011;59266;52.608;13.260;2024-01-11T07:43:38;42.88;;;9.02;;
71462;SDS011;59266;52.608;13.260;2024-01-11T07:46:19;48.92;;;11.05;;
71462;SDS011;59266;52.608;13.260;2024-01-11T07:48:58;52.30;;;10.75;;
71462;SDS011;59266;52.608;13.260;2024-01-11T07:51:25;56.13;;;11.80;;
71462;SDS011;59266;52.608;13.260;2024-01-11T07:53:52;48.25;;;9.23;;
71462;SDS011;59266;52.608;13.260;2024-01-11T07:56:19;44.45;;;10.07;;
71462;SDS011;59266;52.608;13.260;2024-01-11T07:58:46;44.22;;;10.40;;
71462;SDS011;59266;52.608;13.260;2024-01-11T08:01:15;42.40;;;9.40;;
71462;SDS011;59266;52.608;13.260;2024-01-11T08:03:43;40.28;;;10.48;;
71462;SDS011;59266;52.608;13.260;2024-01-11T08:06:13;55.85;;;11.40;;
71462;SDS011;59266;52.608;13.260;2024-01-11T08:08:40;52.45;;;10.48;;
71462;SDS011;59266;52.608;13.260;2024-01-11T08:11:07;53.00;;;9.63;;
71462;SDS011;59266;52.608;13.260;2024-01-11T08:13:34;53.70;;;11.63;;
71462;SDS011;59266;52.608;13.260;2024-01-11T08:16:01;53.85;;;12.20;;
71462;SDS011;59266;52.608;13.260;2024-01-11T08:18:30;52.03;;;11.57;;
71462;SDS011;59266;52.608;13.260;2024-01-11T08:20:57;41.47;;;10.73;;
71462;SDS011;59266;52.608;13.260;2024-01-11T08:23:24;53.08;;;13.45;;
71462;SDS011;59266;52.608;13.260;2024-01-11T08:25:51;40.20;;;10.05;;
71462;SDS011;59266;52.608;13.260;2024-01-11T08:28:20;46.15;;;10.90;;
71462;SDS011;59266;52.608;13.260;2024-01-11T08:30:47;38.40;;;9.80;;
71462;SDS011;59266;52.608;13.260;2024-01-11T08:33:14;50.78;;;10.88;;
71462;SDS011;59266;52.608;13.260;2024-01-11T08:35:41;41.60;;;9.68;;
71462;SDS011;59266;52.608;13.260;2024-01-11T08:38:08;41.42;;;10.48;;
71462;SDS011;59266;52.608;13.260;2024-01-11T08:40:35;51.08;;;12.07;;
71462;SDS011;59266;52.608;13.260;2024-01-11T08:43:02;56.03;;;13.75;;
71462;SDS011;59266;52.608;13.260;2024-01-11T08:45:29;65.30;;;14.52;;
71462;SDS011;59266;52.608;13.260;2024-01-11T08:47:56;57.95;;;14.13;;
71462;SDS011;59266;52.608;13.260;2024-01-11T08:50:23;53.60;;;13.10;;
71462;SDS011;59266;52.608;13.260;2024-01-11T08:52:52;48.95;;;11.43;;
71462;SDS011;59266;52.608;13.260;2024-01-11T08:55:22;47.30;;;12.77;;
71462;SDS011;59266;52.608;13.260;2024-01-11T08:57:48;35.10;;;8.77;;
71462;SDS011;59266;52.608;13.260;2024-01-11T09:00:15;46.53;;;10.48;;
71462;SDS011;59266;52.608;13.260;2024-01-11T09:02:44;38.95;;;10.48;;
71462;SDS011;59266;52.608;13.260;2024-01-11T09:05:13;46.83;;;10.00;;
71462;SDS011;59266;52.608;13.260;2024-01-11T09:07:40;50.30;;;12.35;;
71462;SDS011;59266;52.608;13.260;2024-01-11T09:10:08;41.03;;;9.73;;
71462;SDS011;59266;52.608;13.260;2024-01-11T09:12:35;33.85;;;8.68;;
71462;SDS011;59266;52.608;13.260;2024-01-11T09:15:02;37.45;;;9.30;;
71462;SDS011;59266;52.608;13.260;2024-01-11T09:17:29;36.70;;;9.00;;
71462;SDS011;59266;52.608;13.260;2024-01-11T09:19:55;38.95;;;9.75;;
71462;SDS011;59266;52.608;13.260;2024-01-11T09:22:22;45.55;;;9.48;;
71462;SDS011;59266;52.608;13.260;2024-01-11T09:24:49;32.50;;;9.63;;
71462;SDS011;59266;52.608;13.260;2024-01-11T09:27:15;48.35;;;14.10;;
71462;SDS011;59266;52.608;13.260;2024-01-11T09:29:43;40.13;;;9.80;;
71462;SDS011;59266;52.608;13.260;2024-01-11T09:32:11;44.05;;;9.80;;
71462;SDS011;59266;52.608;13.260;2024-01-11T09:34:38;48.40;;;9.45;;
71462;SDS011;59266;52.608;13.260;2024-01-11T09:37:06;34.25;;;9.55;;
71462;SDS011;59266;52.608;13.260;2024-01-11T09:39:32;37.85;;;10.15;;
71462;SDS011;59266;52.608;13.260;2024-01-11T09:42:04;42.88;;;12.23;;
71462;SDS011;59266;52.608;13.260;2024-01-11T09:44:33;38.90;;;10.48;;
71462;SDS011;59266;52.608;13.260;2024-01-11T09:47:01;35.97;;;10.13;;
71462;SDS011;59266;52.608;13.260;2024-01-11T09:49:30;34.05;;;10.50;;
71462;SDS011;59266;52.608;13.260;2024-01-11T09:51:57;38.35;;;11.35;;
71462;SDS011;59266;52.608;13.260;2024-01-11T09:54:24;39.85;;;10.80;;
71462;SDS011;59266;52.608;13.260;2024-01-11T09:56:52;40.63;;;11.20;;
71462;SDS011;59266;52.608;13.260;2024-01-11T09:59:20;34.35;;;9.32;;
71462;SDS011;59266;52.608;13.260;2024-01-11T10:01:51;43.97;;;11.85;;
71462;SDS011;59266;52.608;13.260;2024-01-11T10:04:18;37.38;;;11.25;;
71462;SDS011;59266;52.608;13.260;2024-01-11T10:06:44;37.83;;;10.05;;
71462;SDS011;59266;52.608;13.260;2024-01-11T10:09:11;39.60;;;10.65;;
71462;SDS011;59266;52.608;13.260;2024-01-11T10:11:39;27.05;;;7.80;;
71462;SDS011;59266;52.608;13.260;2024-01-11T10:14:05;35.72;;;10.35;;
71462;SDS011;59266;52.608;13.260;2024-01-11T10:16:33;27.20;;;8.88;;
71462;SDS011;59266;52.608;13.260;2024-01-11T10:18:59;29.50;;;9.38;;
71462;SDS011;59266;52.608;13.260;2024-01-11T10:21:27;33.75;;;9.93;;
71462;SDS011;59266;52.608;13.260;2024-01-11T10:23:57;26.58;;;8.38;;
71462;SDS011;59266;52.608;13.260;2024-01-11T10:26:24;28.25;;;9.50;;
71462;SDS011;59266;52.608;13.260;2024-01-11T10:28:51;28.83;;;9.40;;
71462;SDS011;59266;52.608;13.260;2024-01-11T10:31:17;27.30;;;8.32;;
71462;SDS011;59266;52.608;13.260;2024-01-11T10:33:44;25.92;;;7.82;;
71462;SDS011;59266;52.608;13.260;2024-01-11T10:36:11;28.92;;;8.60;;
71462;SDS011;59266;52.608;13.260;2024-01-11T10:38:38;27.95;;;8.65;;
71462;SDS011;59266;52.608;13.260;2024-01-11T10:41:06;30.02;;;10.27;;
71462;SDS011;59266;52.608;13.260;2024-01-11T10:43:37;29.60;;;9.30;;
71462;SDS011;59266;52.608;13.260;2024-01-11T10:46:05;31.45;;;9.50;;
71462;SDS011;59266;52.608;13.260;2024-01-11T10:48:37;25.13;;;7.82;;
71462;SDS011;59266;52.608;13.260;2024-01-11T10:51:07;26.67;;;8.70;;
71462;SDS011;59266;52.608;13.260;2024-01-11T10:56:13;29.00;;;8.38;;
71462;SDS011;59266;52.608;13.260;2024-01-11T10:58:42;25.23;;;7.93;;
71462;SDS011;59266;52.608;13.260;2024-01-11T11:01:10;27.83;;;8.48;;
71462;SDS011;59266;52.608;13.260;2024-01-11T11:03:38;24.70;;;8.95;;
71462;SDS011;59266;52.608;13.260;2024-01-11T11:06:06;28.98;;;8.88;;
71462;SDS011;59266;52.608;13.260;2024-01-11T11:08:33;28.05;;;8.02;;
71462;SDS011;59266;52.608;13.260;2024-01-11T11:11:02;23.38;;;7.18;;
71462;SDS011;59266;52.608;13.260;2024-01-11T11:13:32;26.38;;;8.10;;
71462;SDS011;59266;52.608;13.260;2024-01-11T11:16:01;25.08;;;7.68;;
71462;SDS011;59266;52.608;13.260;2024-01-11T11:18:30;27.02;;;8.77;;
71462;SDS011;59266;52.608;13.260;2024-01-11T11:20:58;27.98;;;8.88;;
71462;SDS011;59266;52.608;13.260;2024-01-11T11:23:24;27.98;;;9.38;;
71462;SDS011;59266;52.608;13.260;2024-01-11T11:25:51;28.98;;;8.75;;
71462;SDS011;59266;52.608;13.260;2024-01-11T11:28:21;26.60;;;8.82;;
71462;SDS011;59266;52.608;13.260;2024-01-11T11:30:48;28.98;;;8.65;;
71462;SDS011;59266;52.608;13.260;2024-01-11T11:33:19;24.70;;;7.90;;
71462;SDS011;59266;52.608;13.260;2024-01-11T11:35:48;29.38;;;8.98;;
71462;SDS011;59266;52.608;13.260;2024-01-11T11:38:20;39.65;;;11.70;;
71462;SDS011;59266;52.608;13.260;2024-01-11T11:40:50;33.08;;;10.55;;
71462;SDS011;59266;52.608;13.260;2024-01-11T11:43:18;38.30;;;11.82;;
71462;SDS011;59266;52.608;13.260;2024-01-11T11:45:47;48.33;;;10.45;;
71462;SDS011;59266;52.608;13.260;2024-01-11T11:48:47;35.25;;;10.30;;
71462;SDS011;59266;52.608;13.260;2024-01-11T11:51:14;33.80;;;10.90;;
71462;SDS011;59266;52.608;13.260;2024-01-11T11:53:49;29.98;;;8.73;;
71462;SDS011;59266;52.608;13.260;2024-01-11T11:56:20;32.28;;;9.90;;
71462;SDS011;59266;52.608;13.260;2024-01-11T11:58:48;36.65;;;10.77;;
71462;SDS011;59266;52.608;13.260;2024-01-11T12:01:19;33.63;;;11.60;;
71462;SDS011;59266;52.608;13.260;2024-01-11T12:03:46;34.40;;;10.77;;
71462;SDS011;59266;52.608;13.260;2024-01-11T12:06:16;37.55;;;11.13;;
71462;SDS011;59266;52.608;13.260;2024-01-11T12:08:46;41.03;;;11.65;;
71462;SDS011;59266;52.608;13.260;2024-01-11T12:11:14;36.13;;;11.35;;
71462;SDS011;59266;52.608;13.260;2024-01-11T12:13:41;34.95;;;10.20;;
71462;SDS011;59266;52.608;13.260;2024-01-11T12:16:11;36.38;;;10.32;;
71462;SDS011;59266;52.608;13.260;2024-01-11T12:18:38;29.73;;;9.10;;
71462;SDS011;59266;52.608;13.260;2024-01-11T12:21:05;35.15;;;10.35;;
71462;SDS011;59266;52.608;13.260;2024-01-11T12:23:32;35.90;;;10.13;;
71462;SDS011;59266;52.608;13.260;2024-01-11T12:26:01;34.47;;;10.25;;
71462;SDS011;59266;52.608;13.260;2024-01-11T12:28:30;32.70;;;8.93;;
71462;SDS011;59266;52.608;13.260;2024-01-11T12:30:57;35.63;;;9.95;;
71462;SDS011;59266;52.608;13.260;2024-01-11T12:33:25;31.85;;;9.45;;
71462;SDS011;59266;52.608;13.260;2024-01-11T12:35:53;40.28;;;11.00;;
71462;SDS011;59266;52.608;13.260;2024-01-11T12:38:22;32.15;;;11.90;;
71462;SDS011;59266;52.608;13.260;2024-01-11T12:40:49;32.00;;;9.93;;
71462;SDS011;59266;52.608;13.260;2024-01-11T12:43:16;33.13;;;10.93;;
71462;SDS011;59266;52.608;13.260;2024-01-11T12:45:43;34.08;;;10.20;;
71462;SDS011;59266;52.608;13.260;2024-01-11T12:48:09;47.00;;;14.00;;
71462;SDS011;59266;52.608;13.260;2024-01-11T12:50:40;41.30;;;12.85;;
71462;SDS011;59266;52.608;13.260;2024-01-11T12:53:14;39.90;;;13.45;;
71462;SDS011;59266;52.608;13.260;2024-01-11T12:55:47;67.80;;;19.85;;
71462;SDS011;59266;52.608;13.260;2024-01-11T12:58:23;33.20;;;11.73;;
71462;SDS011;59266;52.608;13.260;2024-01-11T13:00:52;26.60;;;8.43;;
71462;SDS011;59266;52.608;13.260;2024-01-11T13:03:20;31.58;;;9.05;;
71462;SDS011;59266;52.608;13.260;2024-01-11T13:05:47;31.13;;;9.23;;
71462;SDS011;59266;52.608;13.260;2024-01-11T13:08:15;29.13;;;10.13;;
71462;SDS011;59266;52.608;13.260;2024-01-11T13:10:45;30.08;;;8.88;;
71462;SDS011;59266;52.608;13.260;2024-01-11T13:13:14;30.40;;;9.35;;
71462;SDS011;59266;52.608;13.260;2024-01-11T13:15:40;27.55;;;9.07;;
71462;SDS011;59266;52.608;13.260;2024-01-11T13:18:07;33.40;;;9.95;;
71462;SDS011;59266;52.608;13.260;2024-01-11T13:20:33;38.00;;;11.60;;
71462;SDS011;59266;52.608;13.260;2024-01-11T13:23:11;36.65;;;12.23;;
71462;SDS011;59266;52.608;13.260;2024-01-11T13:25:43;29.60;;;9.68;;
71462;SDS011;59266;52.608;13.260;2024-01-11T13:28:11;30.40;;;8.15;;
71462;SDS011;59266;52.608;13.260;2024-01-11T13:30:41;28.35;;;8.35;;
71462;SDS011;59266;52.608;13.260;2024-01-11T13:33:09;26.48;;;8.27;;
71462;SDS011;59266;52.608;13.260;2024-01-11T13:35:38;26.52;;;8.13;;
71462;SDS011;59266;52.608;13.260;2024-01-11T13:38:05;26.17;;;8.50;;
71462;SDS011;59266;52.608;13.260;2024-01-11T13:40:32;27.30;;;8.27;;
71462;SDS011;59266;52.608;13.260;2024-01-11T13:42:59;27.77;;;9.02;;
71462;SDS011;59266;52.608;13.260;2024-01-11T13:45:27;24.02;;;7.93;;
71462;SDS011;59266;52.608;13.260;2024-01-11T13:47:54;23.98;;;6.78;;
71462;SDS011;59266;52.608;13.260;2024-01-11T13:50:21;26.63;;;7.40;;
71462;SDS011;59266;52.608;13.260;2024-01-11T13:52:51;22.63;;;6.72;;
71462;SDS011;59266;52.608;13.260;2024-01-11T13:55:18;22.83;;;6.40;;
71462;SDS011;59266;52.608;13.260;2024-01-11T13:57:49;23.48;;;7.70;;
71462;SDS011;59266;52.608;13.260;2024-01-11T14:00:16;29.95;;;8.80;;
71462;SDS011;59266;52.608;13.260;2024-01-11T14:02:45;25.42;;;7.63;;
71462;SDS011;59266;52.608;13.260;2024-01-11T14:05:12;26.52;;;7.47;;
71462;SDS011;59266;52.608;13.260;2024-01-11T14:07:40;22.63;;;6.88;;
71462;SDS011;59266;52.608;13.260;2024-01-11T14:10:08;25.08;;;7.53;;
71462;SDS011;59266;52.608;13.260;2024-01-11T14:12:35;28.05;;;7.82;;
71462;SDS011;59266;52.608;13.260;2024-01-11T14:15:03;25.33;;;7.57;;
71462;SDS011;59266;52.608;13.260;2024-01-11T14:17:30;21.67;;;7.30;;
71462;SDS011;59266;52.608;13.260;2024-01-11T14:19:57;27.25;;;8.95;;
71462;SDS011;59266;52.608;13.260;2024-01-11T14:22:24;24.63;;;7.32;;